createdAt,value
2017-09-26T00:00:33.323Z,1039.16
2017-09-26T00:01:33.315Z,1039.15
2017-09-26T00:02:33.314Z,1039.15
2017-09-26T00:03:33.303Z,1039.13
2017-09-26T00:04:33.296Z,1039.16
2017-09-26T00:05:33.288Z,1039.18
2017-09-26T00:06:33.281Z,1039.2
2017-09-26T00:07:33.272Z,1039.23
2017-09-26T00:08:33.264Z,1039.23
2017-09-26T00:09:33.256Z,1039.25
2017-09-26T00:10:33.251Z,1039.25
2017-09-26T00:11:33.244Z,1039.23
2017-09-26T00:12:33.237Z,1039.3
2017-09-26T00:13:33.228Z,1039.29
2017-09-26T00:14:33.220Z,1039.34
2017-09-26T00:15:33.212Z,1039.33
2017-09-26T00:16:33.206Z,1039.36
2017-09-26T00:17:33.200Z,1039.35
2017-09-26T00:18:33.191Z,1039.37
2017-09-26T00:19:33.182Z,1039.41
2017-09-26T00:20:33.176Z,1039.41
2017-09-26T00:21:33.168Z,1039.42
2017-09-26T00:22:33.162Z,1039.44
2017-09-26T00:23:33.154Z,1039.37
2017-09-26T00:24:33.146Z,1039.4
2017-09-26T00:25:33.139Z,1039.45
2017-09-26T00:26:33.129Z,1039.41
2017-09-26T00:27:33.122Z,1039.4
2017-09-26T00:28:33.113Z,1039.41
2017-09-26T00:29:33.106Z,1039.42
2017-09-26T00:30:33.099Z,1039.41
2017-09-26T00:31:33.092Z,1039.4
2017-09-26T00:32:33.085Z,1039.37
2017-09-26T00:33:33.077Z,1039.35
2017-09-26T00:34:33.067Z,1039.38
2017-09-26T00:35:33.060Z,1039.41
2017-09-26T00:36:33.054Z,1039.37
2017-09-26T00:37:33.045Z,1039.39
2017-09-26T00:38:33.039Z,1039.41
2017-09-26T00:39:33.031Z,1039.38
2017-09-26T00:40:33.025Z,1039.4
2017-09-26T00:41:33.014Z,1039.42
2017-09-26T00:42:33.008Z,1039.41
2017-09-26T00:43:33.001Z,1039.41
2017-09-26T00:44:32.997Z,1039.46
2017-09-26T00:45:32.985Z,1039.43
2017-09-26T00:46:32.976Z,1039.42
2017-09-26T00:47:32.969Z,1039.39
2017-09-26T00:48:32.961Z,1039.35
2017-09-26T00:49:32.954Z,1039.4
2017-09-26T00:50:32.948Z,1039.41
2017-09-26T00:51:32.940Z,1039.37
2017-09-26T00:52:32.932Z,1039.39
2017-09-26T00:53:32.924Z,1039.4
2017-09-26T00:54:32.916Z,1039.42
2017-09-26T00:55:32.908Z,1039.41
2017-09-26T00:56:32.899Z,1039.44
2017-09-26T00:57:32.893Z,1039.45
2017-09-26T00:58:32.886Z,1039.49
2017-09-26T00:59:32.879Z,1039.42
2017-09-26T01:00:32.875Z,1039.5
2017-09-26T01:01:32.862Z,1039.51
2017-09-26T01:02:32.855Z,1039.53
2017-09-26T01:03:32.849Z,1039.48
2017-09-26T01:04:32.838Z,1039.48
2017-09-26T01:05:32.832Z,1039.46
2017-09-26T01:06:32.825Z,1039.46
2017-09-26T01:07:32.815Z,1039.46
2017-09-26T01:08:32.809Z,1039.43
2017-09-26T01:09:32.801Z,1039.43
2017-09-26T01:10:32.793Z,1039.4
2017-09-26T01:11:32.786Z,1039.43
2017-09-26T01:12:32.779Z,1039.43
2017-09-26T01:13:32.772Z,1039.44
2017-09-26T01:14:32.769Z,1039.44
2017-09-26T01:15:32.754Z,1039.39
2017-09-26T01:16:32.748Z,1039.41
2017-09-26T01:17:32.740Z,1039.4
2017-09-26T01:18:32.733Z,1039.4
2017-09-26T01:19:32.726Z,1039.42
2017-09-26T01:20:32.718Z,1039.4
2017-09-26T01:21:32.710Z,1039.42
2017-09-26T01:22:32.701Z,1039.38
2017-09-26T01:23:32.694Z,1039.41
2017-09-26T01:24:32.686Z,1039.37
2017-09-26T01:25:32.679Z,1039.35
2017-09-26T01:26:32.672Z,1039.36
2017-09-26T01:27:32.665Z,1039.35
2017-09-26T01:28:32.657Z,1039.34
2017-09-26T01:29:32.649Z,1039.29
2017-09-26T01:30:32.640Z,1039.27
2017-09-26T01:31:32.633Z,1039.25
2017-09-26T01:32:32.626Z,1039.25
2017-09-26T01:33:32.619Z,1039.22
2017-09-26T01:34:32.610Z,1039.21
2017-09-26T01:35:32.602Z,1039.22
2017-09-26T01:36:32.595Z,1039.21
2017-09-26T01:37:32.587Z,1039.17
2017-09-26T01:38:32.581Z,1039.18
2017-09-26T01:39:32.574Z,1039.16
2017-09-26T01:40:32.566Z,1039.22
2017-09-26T01:41:32.560Z,1039.18
2017-09-26T01:42:32.550Z,1039.22
2017-09-26T01:43:32.542Z,1039.21
2017-09-26T01:44:32.536Z,1039.2
2017-09-26T01:45:32.528Z,1039.19
2017-09-26T01:46:32.521Z,1039.18
2017-09-26T01:47:32.515Z,1039.16
2017-09-26T01:48:32.506Z,1039.19
2017-09-26T01:49:32.500Z,1039.19
2017-09-26T01:50:32.492Z,1039.18
2017-09-26T01:51:32.484Z,1039.17
2017-09-26T01:52:32.476Z,1039.17
2017-09-26T01:53:32.469Z,1039.2
2017-09-26T01:54:32.462Z,1039.18
2017-09-26T01:55:32.455Z,1039.22
2017-09-26T01:56:32.448Z,1039.18
2017-09-26T01:57:32.441Z,1039.16
2017-09-26T01:58:32.433Z,1039.17
2017-09-26T01:59:32.425Z,1039.15
2017-09-26T02:00:32.420Z,1039.16
2017-09-26T02:01:32.411Z,1039.15
2017-09-26T02:02:32.406Z,1039.18
2017-09-26T02:03:32.395Z,1039.22
2017-09-26T02:04:32.389Z,1039.22
2017-09-26T02:05:32.381Z,1039.23
2017-09-26T02:06:32.374Z,1039.23
2017-09-26T02:07:32.368Z,1039.2
2017-09-26T02:08:32.360Z,1039.23
2017-09-26T02:09:32.353Z,1039.16
2017-09-26T02:10:32.344Z,1039.2
2017-09-26T02:11:32.337Z,1039.19
2017-09-26T02:12:32.328Z,1039.21
2017-09-26T02:13:32.321Z,1039.23
2017-09-26T02:14:32.316Z,1039.21
2017-09-26T02:15:32.308Z,1039.17
2017-09-26T02:16:32.300Z,1039.22
2017-09-26T02:17:32.293Z,1039.19
2017-09-26T02:18:32.285Z,1039.18
2017-09-26T02:19:32.278Z,1039.17
2017-09-26T02:20:32.271Z,1039.19
2017-09-26T02:21:32.262Z,1039.13
2017-09-26T02:22:32.257Z,1039.1
2017-09-26T02:23:32.249Z,1039.13
2017-09-26T02:24:32.241Z,1039.1
2017-09-26T02:25:32.234Z,1039.09
2017-09-26T02:26:32.228Z,1039.07
2017-09-26T02:27:32.221Z,1039.05
2017-09-26T02:28:32.213Z,1039.03
2017-09-26T02:29:32.206Z,1039.02
2017-09-26T02:30:32.197Z,1039
2017-09-26T02:31:32.190Z,1039
2017-09-26T02:32:32.184Z,1038.96
2017-09-26T02:33:32.176Z,1038.95
2017-09-26T02:34:32.169Z,1038.91
2017-09-26T02:35:32.163Z,1038.97
2017-09-26T02:36:32.155Z,1038.9
2017-09-26T02:37:32.449Z,1038.89
2017-09-26T02:38:32.140Z,1038.9
2017-09-26T02:39:32.133Z,1038.94
2017-09-26T02:40:32.126Z,1038.93
2017-09-26T02:41:32.119Z,1038.95
2017-09-26T02:42:32.112Z,1038.97
2017-09-26T02:43:32.106Z,1038.95
2017-09-26T02:44:32.099Z,1038.94
2017-09-26T02:45:32.091Z,1038.92
2017-09-26T02:46:32.087Z,1038.95
2017-09-26T02:47:32.076Z,1038.91
2017-09-26T02:48:32.069Z,1038.9
2017-09-26T02:49:32.063Z,1038.9
2017-09-26T02:50:32.054Z,1038.93
2017-09-26T02:51:32.047Z,1038.89
2017-09-26T02:52:32.041Z,1038.87
2017-09-26T02:53:32.033Z,1038.86
2017-09-26T02:54:32.028Z,1038.85
2017-09-26T02:55:32.021Z,1038.84
2017-09-26T02:56:32.014Z,1038.83
2017-09-26T02:57:32.008Z,1038.87
2017-09-26T02:58:31.999Z,1038.82
2017-09-26T02:59:31.991Z,1038.79
2017-09-26T03:00:31.985Z,1038.81
2017-09-26T03:01:31.978Z,1038.8
2017-09-26T03:02:31.973Z,1038.79
2017-09-26T03:03:31.966Z,1038.74
2017-09-26T03:04:31.958Z,1038.72
2017-09-26T03:05:31.951Z,1038.71
2017-09-26T03:06:31.944Z,1038.73
2017-09-26T03:07:31.936Z,1038.74
2017-09-26T03:08:31.928Z,1038.75
2017-09-26T03:09:31.923Z,1038.75
2017-09-26T03:10:31.917Z,1038.75
2017-09-26T03:11:31.910Z,1038.71
2017-09-26T03:12:31.904Z,1038.71
2017-09-26T03:13:31.896Z,1038.69
2017-09-26T03:14:31.888Z,1038.71
2017-09-26T03:15:31.882Z,1038.69
2017-09-26T03:16:31.875Z,1038.68
2017-09-26T03:17:31.869Z,1038.68
2017-09-26T03:18:31.862Z,1038.73
2017-09-26T03:19:31.853Z,1038.68
2017-09-26T03:20:31.846Z,1038.73
2017-09-26T03:21:31.839Z,1038.73
2017-09-26T03:22:31.833Z,1038.73
2017-09-26T03:23:31.827Z,1038.68
2017-09-26T03:24:31.825Z,1038.67
2017-09-26T03:25:31.812Z,1038.65
2017-09-26T03:26:31.805Z,1038.67
2017-09-26T03:27:31.799Z,1038.65
2017-09-26T03:28:31.793Z,1038.67
2017-09-26T03:29:31.786Z,1038.68
2017-09-26T03:30:31.781Z,1038.67
2017-09-26T03:31:31.773Z,1038.74
2017-09-26T03:32:31.767Z,1038.71
2017-09-26T03:33:31.759Z,1038.71
2017-09-26T03:34:31.752Z,1038.7
2017-09-26T03:35:31.745Z,1038.7
2017-09-26T03:36:31.737Z,1038.71
2017-09-26T03:37:31.732Z,1038.72
2017-09-26T03:38:31.725Z,1038.71
2017-09-26T03:39:31.720Z,1038.7
2017-09-26T03:40:31.710Z,1038.73
2017-09-26T03:41:31.703Z,1038.71
2017-09-26T03:42:31.698Z,1038.74
2017-09-26T03:43:31.692Z,1038.72
2017-09-26T03:44:31.684Z,1038.71
2017-09-26T03:45:31.678Z,1038.8
2017-09-26T03:46:31.670Z,1038.83
2017-09-26T03:47:31.662Z,1038.88
2017-09-26T03:48:31.657Z,1038.85
2017-09-26T03:49:31.650Z,1038.78
2017-09-26T03:50:31.644Z,1038.84
2017-09-26T03:51:31.637Z,1038.86
2017-09-26T03:52:31.630Z,1038.88
2017-09-26T03:53:31.624Z,1038.88
2017-09-26T03:54:31.619Z,1038.87
2017-09-26T03:55:31.609Z,1038.81
2017-09-26T03:56:31.603Z,1038.83
2017-09-26T03:57:31.596Z,1038.8
2017-09-26T03:58:31.589Z,1038.8
2017-09-26T03:59:31.583Z,1038.79
2017-09-26T04:00:31.577Z,1038.8
2017-09-26T04:01:31.571Z,1038.85
2017-09-26T04:02:31.561Z,1038.83
2017-09-26T04:03:31.559Z,1038.79
2017-09-26T04:04:31.550Z,1038.8
2017-09-26T04:05:31.542Z,1038.8
2017-09-26T04:06:31.535Z,1038.79
2017-09-26T04:07:31.529Z,1038.81
2017-09-26T04:08:31.523Z,1038.76
2017-09-26T04:09:31.515Z,1038.75
2017-09-26T04:10:31.510Z,1038.81
2017-09-26T04:11:31.503Z,1038.84
2017-09-26T04:12:31.495Z,1038.87
2017-09-26T04:13:31.488Z,1038.87
2017-09-26T04:14:31.481Z,1038.86
2017-09-26T04:15:31.476Z,1038.93
2017-09-26T04:16:31.468Z,1038.9
2017-09-26T04:17:31.463Z,1038.9
2017-09-26T04:18:31.456Z,1038.91
2017-09-26T04:19:31.452Z,1038.92
2017-09-26T04:20:31.442Z,1038.93
2017-09-26T04:21:31.438Z,1038.92
2017-09-26T04:22:31.428Z,1038.94
2017-09-26T04:23:31.422Z,1038.91
2017-09-26T04:24:31.415Z,1038.92
2017-09-26T04:25:31.409Z,1038.91
2017-09-26T04:26:31.403Z,1038.92
2017-09-26T04:27:31.397Z,1038.92
2017-09-26T04:28:31.394Z,1038.91
2017-09-26T04:29:31.383Z,1038.91
2017-09-26T04:30:31.376Z,1038.86
2017-09-26T04:31:31.368Z,1038.83
2017-09-26T04:32:31.363Z,1038.84
2017-09-26T04:33:31.356Z,1038.85
2017-09-26T04:34:31.352Z,1038.85
2017-09-26T04:35:31.342Z,1038.84
2017-09-26T04:36:31.336Z,1038.86
2017-09-26T04:37:31.329Z,1038.88
2017-09-26T04:38:31.324Z,1038.88
2017-09-26T04:39:31.316Z,1038.91
2017-09-26T04:40:31.311Z,1038.87
2017-09-26T04:41:31.304Z,1038.93
2017-09-26T04:42:31.295Z,1038.93
2017-09-26T04:43:31.289Z,1038.93
2017-09-26T04:44:31.284Z,1038.94
2017-09-26T04:45:31.277Z,1038.95
2017-09-26T04:46:31.272Z,1038.94
2017-09-26T04:47:31.264Z,1038.93
2017-09-26T04:48:31.259Z,1038.96
2017-09-26T04:49:31.252Z,1038.94
2017-09-26T04:50:31.244Z,1038.98
2017-09-26T04:51:31.238Z,1039.01
2017-09-26T04:52:31.230Z,1039.01
2017-09-26T04:53:31.223Z,1038.97
2017-09-26T04:54:31.220Z,1038.96
2017-09-26T04:55:31.213Z,1038.96
2017-09-26T04:56:31.207Z,1038.97
2017-09-26T04:57:31.198Z,1038.99
2017-09-26T04:58:31.192Z,1039
2017-09-26T04:59:31.186Z,1038.98
2017-09-26T05:00:31.180Z,1039.03
2017-09-26T05:01:31.173Z,1039.13
2017-09-26T05:02:31.167Z,1039.1
2017-09-26T05:03:31.145Z,1039.1
2017-09-26T05:04:31.137Z,1039.12
2017-09-26T05:05:31.131Z,1039.1
2017-09-26T05:06:31.125Z,1039.13
2017-09-26T05:07:31.120Z,1039.1
2017-09-26T05:08:31.113Z,1039.11
2017-09-26T05:09:31.106Z,1039.15
2017-09-26T05:10:31.099Z,1039.14
2017-09-26T05:11:31.092Z,1039.15
2017-09-26T05:12:31.085Z,1039.16
2017-09-26T05:13:31.079Z,1039.16
2017-09-26T05:14:31.075Z,1039.15
2017-09-26T05:15:31.068Z,1039.2
2017-09-26T05:16:31.062Z,1039.25
2017-09-26T05:17:31.055Z,1039.26
2017-09-26T05:18:31.049Z,1039.29
2017-09-26T05:19:31.040Z,1039.35
2017-09-26T05:20:31.035Z,1039.35
2017-09-26T05:21:31.031Z,1039.32
2017-09-26T05:22:31.023Z,1039.29
2017-09-26T05:23:31.016Z,1039.34
2017-09-26T05:24:31.009Z,1039.33
2017-09-26T05:25:31.002Z,1039.32
2017-09-26T05:26:30.997Z,1039.32
2017-09-26T05:27:30.991Z,1039.29
2017-09-26T05:28:30.984Z,1039.3
2017-09-26T05:29:30.977Z,1039.3
2017-09-26T05:30:30.969Z,1039.29
2017-09-26T05:31:30.963Z,1039.32
2017-09-26T05:32:30.957Z,1039.31
2017-09-26T05:33:30.950Z,1039.3
2017-09-26T05:34:30.945Z,1039.35
2017-09-26T05:35:30.938Z,1039.32
2017-09-26T05:36:30.933Z,1039.36
2017-09-26T05:37:30.926Z,1039.35
2017-09-26T05:38:30.918Z,1039.35
2017-09-26T05:39:30.912Z,1039.32
2017-09-26T05:40:30.907Z,1039.34
2017-09-26T05:41:30.899Z,1039.31
2017-09-26T05:42:30.894Z,1039.33
2017-09-26T05:43:30.888Z,1039.32
2017-09-26T05:44:30.879Z,1039.32
2017-09-26T05:45:30.875Z,1039.34
2017-09-26T05:46:30.868Z,1039.31
2017-09-26T05:47:30.860Z,1039.33
2017-09-26T05:48:30.855Z,1039.32
2017-09-26T05:49:30.849Z,1039.31
2017-09-26T05:50:30.842Z,1039.33
2017-09-26T05:51:30.835Z,1039.32
2017-09-26T05:52:30.828Z,1039.3
2017-09-26T05:53:30.823Z,1039.3
2017-09-26T05:54:30.817Z,1039.27
2017-09-26T05:55:30.810Z,1039.28
2017-09-26T05:56:30.804Z,1039.28
2017-09-26T05:57:30.798Z,1039.27
2017-09-26T05:58:30.791Z,1039.26
2017-09-26T05:59:30.786Z,1039.21
2017-09-26T06:00:30.777Z,1039.21
2017-09-26T06:01:30.771Z,1039.21
2017-09-26T06:02:30.766Z,1039.13
2017-09-26T06:03:30.758Z,1039.17
2017-09-26T06:04:30.752Z,1039.16
2017-09-26T06:05:30.748Z,1039.16
2017-09-26T06:06:30.739Z,1039.13
2017-09-26T06:07:30.733Z,1039.17
2017-09-26T06:08:30.728Z,1039.14
2017-09-26T06:09:30.722Z,1039.15
2017-09-26T06:10:30.715Z,1039.14
2017-09-26T06:11:30.709Z,1039.14
2017-09-26T06:12:30.704Z,1039.13
2017-09-26T06:13:30.697Z,1039.12
2017-09-26T06:14:30.690Z,1039.1
2017-09-26T06:15:30.684Z,1039.13
2017-09-26T06:16:30.677Z,1039.08
2017-09-26T06:17:30.670Z,1039.09
2017-09-26T06:18:30.666Z,1039.07
2017-09-26T06:19:30.663Z,1039.08
2017-09-26T06:20:30.653Z,1039.03
2017-09-26T06:21:30.647Z,1039
2017-09-26T06:22:30.640Z,1039.01
2017-09-26T06:23:30.635Z,1039.04
2017-09-26T06:24:30.629Z,1039
2017-09-26T06:25:30.622Z,1039.05
2017-09-26T06:26:30.618Z,1039.03
2017-09-26T06:27:30.612Z,1039.05
2017-09-26T06:28:30.605Z,1039.03
2017-09-26T06:29:30.602Z,1039.03
2017-09-26T06:30:30.592Z,1038.99
2017-09-26T06:31:30.587Z,1039.01
2017-09-26T06:32:30.580Z,1038.98
2017-09-26T06:33:30.576Z,1039.01
2017-09-26T06:34:30.575Z,1039.02
2017-09-26T06:35:30.565Z,1039.09
2017-09-26T06:36:30.559Z,1039.06
2017-09-26T06:37:30.553Z,1039.07
2017-09-26T06:38:30.546Z,1039.07
2017-09-26T06:39:30.539Z,1039.02
2017-09-26T06:40:30.536Z,1039.03
2017-09-26T06:41:30.529Z,1039.02
2017-09-26T06:42:30.522Z,1039.03
2017-09-26T06:43:30.516Z,1039.02
2017-09-26T06:44:30.510Z,1038.97
2017-09-26T06:45:30.504Z,1038.99
2017-09-26T06:46:30.500Z,1038.96
2017-09-26T06:47:30.496Z,1038.93
2017-09-26T06:48:30.488Z,1038.9
2017-09-26T06:49:30.483Z,1038.87
2017-09-26T06:50:30.476Z,1038.81
2017-09-26T06:51:30.469Z,1038.83
2017-09-26T06:52:30.464Z,1038.75
2017-09-26T06:53:30.459Z,1038.7
2017-09-26T06:54:30.459Z,1038.68
2017-09-26T06:55:30.450Z,1038.67
2017-09-26T06:56:30.443Z,1038.7
2017-09-26T06:57:30.437Z,1038.73
2017-09-26T06:58:30.429Z,1038.75
2017-09-26T06:59:30.424Z,1038.79
2017-09-26T07:00:30.419Z,1038.77
2017-09-26T07:01:30.412Z,1038.8
2017-09-26T07:02:30.409Z,1038.78
2017-09-26T07:03:30.403Z,1038.76
2017-09-26T07:04:30.398Z,1038.76
2017-09-26T07:05:30.390Z,1038.78
2017-09-26T07:06:30.386Z,1038.81
2017-09-26T07:07:30.381Z,1038.78
2017-09-26T07:08:30.375Z,1038.86
2017-09-26T07:09:30.370Z,1038.83
2017-09-26T07:10:30.364Z,1038.89
2017-09-26T07:11:30.359Z,1038.92
2017-09-26T07:12:30.352Z,1039.01
2017-09-26T07:13:30.346Z,1039.04
2017-09-26T07:14:30.343Z,1039.06
2017-09-26T07:15:30.337Z,1039.07
2017-09-26T07:16:30.332Z,1039.05
2017-09-26T07:17:30.326Z,1039.01
2017-09-26T07:18:30.319Z,1039.03
2017-09-26T07:19:30.313Z,1039.04
2017-09-26T07:20:30.308Z,1039.01
2017-09-26T07:21:30.303Z,1038.93
2017-09-26T07:22:30.299Z,1038.93
2017-09-26T07:23:30.292Z,1038.87
2017-09-26T07:24:30.288Z,1038.84
2017-09-26T07:25:30.283Z,1038.81
2017-09-26T07:26:30.276Z,1038.83
2017-09-26T07:27:30.270Z,1038.72
2017-09-26T07:28:30.265Z,1038.73
2017-09-26T07:29:30.259Z,1038.64
2017-09-26T07:30:30.255Z,1038.56
2017-09-26T07:31:30.247Z,1038.53
2017-09-26T07:32:30.244Z,1038.46
2017-09-26T07:33:30.239Z,1038.46
2017-09-26T07:34:30.233Z,1038.45
2017-09-26T07:35:30.228Z,1038.39
2017-09-26T07:36:30.224Z,1038.45
2017-09-26T07:37:30.221Z,1038.39
2017-09-26T07:38:30.212Z,1038.45
2017-09-26T07:39:30.207Z,1038.45
2017-09-26T07:40:30.203Z,1038.44
2017-09-26T07:41:30.197Z,1038.46
2017-09-26T07:42:30.193Z,1038.34
2017-09-26T07:43:30.188Z,1038.35
2017-09-26T07:44:30.183Z,1038.29
2017-09-26T07:45:30.177Z,1038.29
2017-09-26T07:46:30.172Z,1038.25
2017-09-26T07:47:30.167Z,1038.25
2017-09-26T07:48:30.163Z,1038.24
2017-09-26T07:49:30.157Z,1038.26
2017-09-26T07:50:30.155Z,1038.27
2017-09-26T07:51:30.148Z,1038.26
2017-09-26T07:52:30.144Z,1038.24
2017-09-26T07:53:30.139Z,1038.18
2017-09-26T07:54:30.134Z,1038.16
2017-09-26T07:55:30.130Z,1038.19
2017-09-26T07:56:30.126Z,1038.11
2017-09-26T07:57:30.122Z,1038.16
2017-09-26T07:58:30.119Z,1038.13
2017-09-26T07:59:30.112Z,1038.17
2017-09-26T08:00:30.106Z,1038.2
2017-09-26T08:01:30.103Z,1038.11
2017-09-26T08:02:30.099Z,1037.97
2017-09-26T08:03:30.094Z,1037.89
2017-09-26T08:04:30.090Z,1037.77
2017-09-26T08:05:30.085Z,1037.69
2017-09-26T08:06:30.080Z,1037.7
2017-09-26T08:07:30.076Z,1037.68
2017-09-26T08:08:30.071Z,1037.77
2017-09-26T08:09:30.067Z,1037.68
2017-09-26T08:10:30.065Z,1037.72
2017-09-26T08:11:30.060Z,1037.79
2017-09-26T08:12:30.057Z,1037.76
2017-09-26T08:13:30.052Z,1037.78
2017-09-26T08:14:30.046Z,1037.78
2017-09-26T08:15:30.042Z,1037.77
2017-09-26T08:16:30.041Z,1037.79
2017-09-26T08:17:30.034Z,1037.8
2017-09-26T08:18:30.031Z,1037.72
2017-09-26T08:19:30.028Z,1037.67
2017-09-26T08:20:30.024Z,1037.68
2017-09-26T08:21:30.019Z,1037.68
2017-09-26T08:22:30.016Z,1037.7
2017-09-26T08:23:30.012Z,1037.72
2017-09-26T08:24:30.009Z,1037.78
2017-09-26T08:25:30.006Z,1037.74
2017-09-26T08:26:29.998Z,1037.67
2017-09-26T08:27:29.995Z,1037.59
2017-09-26T08:28:29.997Z,1037.51
2017-09-26T08:29:29.988Z,1037.5
2017-09-26T08:30:30.235Z,1037.56
2017-09-26T08:31:29.981Z,1037.57
2017-09-26T08:32:29.978Z,1037.53
2017-09-26T08:33:29.973Z,1037.48
2017-09-26T08:34:29.969Z,1037.48
2017-09-26T08:35:29.965Z,1037.42
2017-09-26T08:36:29.961Z,1037.35
2017-09-26T08:37:29.957Z,1037.28
2017-09-26T08:38:29.956Z,1037.26
2017-09-26T08:39:29.953Z,1037.32
2017-09-26T08:40:29.948Z,1037.35
2017-09-26T08:41:29.944Z,1037.39
2017-09-26T08:42:29.941Z,1037.37
2017-09-26T08:43:29.936Z,1037.31
2017-09-26T08:44:29.933Z,1037.33
2017-09-26T08:45:29.930Z,1037.36
2017-09-26T08:46:29.929Z,1037.4
2017-09-26T08:47:29.923Z,1037.43
2017-09-26T08:48:29.921Z,1037.44
2017-09-26T08:49:29.918Z,1037.38
2017-09-26T08:50:29.916Z,1037.31
2017-09-26T08:51:29.911Z,1037.24
2017-09-26T08:52:29.909Z,1037.24
2017-09-26T08:53:29.908Z,1037.21
2017-09-26T08:54:29.900Z,1037.21
2017-09-26T08:55:29.899Z,1037.19
2017-09-26T08:56:29.895Z,1037.18
2017-09-26T08:57:29.893Z,1037.13
2017-09-26T08:58:29.890Z,1037.16
2017-09-26T08:59:29.887Z,1037.15
2017-09-26T09:00:29.884Z,1037.14
2017-09-26T09:01:30.132Z,1037.17
2017-09-26T09:02:29.877Z,1037.11
2017-09-26T09:03:29.874Z,1036.98
2017-09-26T09:04:29.871Z,1036.91
2017-09-26T09:05:29.873Z,1036.81
2017-09-26T09:06:29.866Z,1036.65
2017-09-26T09:07:29.864Z,1036.59
2017-09-26T09:08:29.862Z,1036.59
2017-09-26T09:09:29.859Z,1036.52
2017-09-26T09:10:29.855Z,1036.4
2017-09-26T09:11:29.853Z,1036.29
2017-09-26T09:12:29.850Z,1036.37
2017-09-26T09:13:29.849Z,1036.44
2017-09-26T09:14:29.845Z,1036.48
2017-09-26T09:15:29.843Z,1036.54
2017-09-26T09:16:29.840Z,1036.54
2017-09-26T09:17:29.839Z,1036.49
2017-09-26T09:18:29.837Z,1036.47
2017-09-26T09:19:29.836Z,1036.49
2017-09-26T09:20:29.833Z,1036.54
2017-09-26T09:21:29.832Z,1036.57
2017-09-26T09:22:29.828Z,1036.56
2017-09-26T09:23:29.827Z,1036.52
2017-09-26T09:24:29.825Z,1036.59
2017-09-26T09:25:29.822Z,1036.67
2017-09-26T09:26:29.824Z,1036.68
2017-09-26T09:27:29.869Z,1036.62
2017-09-26T09:28:29.816Z,1036.57
2017-09-26T09:29:29.815Z,1036.54
2017-09-26T09:30:29.813Z,1036.6
2017-09-26T09:31:29.811Z,1036.63
2017-09-26T09:32:29.807Z,1036.79
2017-09-26T09:33:29.806Z,1036.75
2017-09-26T09:34:29.806Z,1036.75
2017-09-26T09:35:29.802Z,1036.58
2017-09-26T09:36:29.802Z,1036.39
2017-09-26T09:37:29.800Z,1036.3
2017-09-26T09:38:29.803Z,1036.17
2017-09-26T09:39:29.795Z,1036.09
2017-09-26T09:40:29.795Z,1036.22
2017-09-26T09:41:29.792Z,1036.21
2017-09-26T09:42:29.788Z,1036.18
2017-09-26T09:43:29.793Z,1036.19
2017-09-26T09:44:29.787Z,1036.26
2017-09-26T09:45:29.784Z,1036.33
2017-09-26T09:46:29.785Z,1036.23
2017-09-26T09:47:29.783Z,1036.2
2017-09-26T09:48:29.782Z,1036.18
2017-09-26T09:49:29.779Z,1036.26
2017-09-26T09:50:29.776Z,1036.33
2017-09-26T09:51:29.776Z,1036.5
2017-09-26T09:52:29.774Z,1036.57
2017-09-26T09:53:29.772Z,1036.69
2017-09-26T09:54:29.771Z,1036.85
2017-09-26T09:55:29.771Z,1036.93
2017-09-26T09:56:29.768Z,1036.97
2017-09-26T09:57:29.767Z,1037.09
2017-09-26T09:58:29.764Z,1036.99
2017-09-26T09:59:29.763Z,1036.91
2017-09-26T10:00:29.761Z,1036.77
2017-09-26T10:01:29.759Z,1036.68
2017-09-26T10:02:29.758Z,1036.63
2017-09-26T10:03:29.756Z,1036.63
2017-09-26T10:04:29.752Z,1036.71
2017-09-26T10:05:29.751Z,1036.7
2017-09-26T10:06:29.751Z,1036.75
2017-09-26T10:07:29.748Z,1036.74
2017-09-26T10:08:29.746Z,1036.8
2017-09-26T10:09:29.749Z,1036.77
2017-09-26T10:10:29.742Z,1036.76
2017-09-26T10:11:29.740Z,1036.71
2017-09-26T10:12:29.738Z,1036.64
2017-09-26T10:13:29.737Z,1036.67
2017-09-26T10:14:29.736Z,1036.58
2017-09-26T10:15:29.749Z,1036.53
2017-09-26T10:16:29.733Z,1036.43
2017-09-26T10:17:29.731Z,1036.32
2017-09-26T10:18:29.727Z,1036.28
2017-09-26T10:19:29.726Z,1036.25
2017-09-26T10:20:29.725Z,1036.19
2017-09-26T10:21:29.722Z,1036.14
2017-09-26T10:22:29.722Z,1036.21
2017-09-26T10:23:29.723Z,1036.23
2017-09-26T10:24:29.718Z,1036.4
2017-09-26T10:25:29.717Z,1036.37
2017-09-26T10:26:29.714Z,1036.39
2017-09-26T10:27:29.713Z,1036.39
2017-09-26T10:28:29.712Z,1036.35
2017-09-26T10:29:29.710Z,1036.29
2017-09-26T10:30:29.709Z,1036.32
2017-09-26T10:31:29.707Z,1036.37
2017-09-26T10:32:29.708Z,1036.34
2017-09-26T10:33:29.704Z,1036.36
2017-09-26T10:34:29.705Z,1036.43
2017-09-26T10:35:29.704Z,1036.51
2017-09-26T10:36:29.702Z,1036.65
2017-09-26T10:37:29.701Z,1036.67
2017-09-26T10:38:29.698Z,1036.77
2017-09-26T10:39:29.699Z,1036.95
2017-09-26T10:40:29.694Z,1037.07
2017-09-26T10:41:29.694Z,1037.19
2017-09-26T10:42:29.693Z,1037.26
2017-09-26T10:43:29.693Z,1037.35
2017-09-26T10:44:29.689Z,1037.28
2017-09-26T10:45:29.688Z,1037.31
2017-09-26T10:46:29.686Z,1037.27
2017-09-26T10:47:29.684Z,1037.33
2017-09-26T10:48:29.681Z,1037.36
2017-09-26T10:49:29.682Z,1037.35
2017-09-26T10:50:29.679Z,1037.33
2017-09-26T10:51:29.676Z,1037.4
2017-09-26T10:52:29.675Z,1037.38
2017-09-26T10:53:29.673Z,1037.39
2017-09-26T10:54:29.669Z,1037.43
2017-09-26T10:55:29.669Z,1037.3
2017-09-26T10:56:29.666Z,1037.31
2017-09-26T10:57:29.663Z,1037.21
2017-09-26T10:58:29.661Z,1037.15
2017-09-26T10:59:29.658Z,1037.13
2017-09-26T11:00:29.658Z,1037
2017-09-26T11:01:29.660Z,1037.02
2017-09-26T11:02:29.653Z,1036.99
2017-09-26T11:03:29.649Z,1036.99
2017-09-26T11:04:29.650Z,1037.05
2017-09-26T11:05:29.647Z,1037.17
2017-09-26T11:06:29.643Z,1037.21
2017-09-26T11:07:29.641Z,1037.17
2017-09-26T11:08:29.639Z,1037.1
2017-09-26T11:09:29.638Z,1037.07
2017-09-26T11:10:29.636Z,1037.11
2017-09-26T11:11:29.635Z,1037.05
2017-09-26T11:12:29.633Z,1037.11
2017-09-26T11:13:29.630Z,1037.08
2017-09-26T11:14:29.630Z,1037.08
2017-09-26T11:15:29.626Z,1037.04
2017-09-26T11:16:29.623Z,1037.02
2017-09-26T11:17:29.620Z,1036.96
2017-09-26T11:18:29.620Z,1036.96
2017-09-26T11:19:29.619Z,1036.98
2017-09-26T11:20:29.616Z,1036.98
2017-09-26T11:21:29.614Z,1037.03
2017-09-26T11:22:29.613Z,1037.04
2017-09-26T11:23:29.611Z,1037.08
2017-09-26T11:24:29.608Z,1037.11
2017-09-26T11:25:29.608Z,1037.18
2017-09-26T11:26:29.604Z,1037.24
2017-09-26T11:27:29.603Z,1037.24
2017-09-26T11:28:29.601Z,1037.24
2017-09-26T11:29:29.599Z,1037.14
2017-09-26T11:30:29.598Z,1037.04
2017-09-26T11:31:29.597Z,1037.03
2017-09-26T11:32:29.593Z,1036.99
2017-09-26T11:33:29.598Z,1036.97
2017-09-26T11:34:29.590Z,1036.93
2017-09-26T11:35:29.588Z,1036.96
2017-09-26T11:36:29.584Z,1036.99
2017-09-26T11:37:29.583Z,1036.96
2017-09-26T11:38:29.582Z,1036.99
2017-09-26T11:39:29.580Z,1036.92
2017-09-26T11:40:29.578Z,1036.92
2017-09-26T11:41:29.576Z,1036.96
2017-09-26T11:42:29.572Z,1036.96
2017-09-26T11:43:29.571Z,1036.95
2017-09-26T11:44:29.570Z,1036.96
2017-09-26T11:45:29.568Z,1036.9
2017-09-26T11:46:29.566Z,1036.88
2017-09-26T11:47:29.564Z,1036.81
2017-09-26T11:48:29.562Z,1036.81
2017-09-26T11:49:29.560Z,1036.73
2017-09-26T11:50:29.559Z,1036.66
2017-09-26T11:51:29.558Z,1036.6
2017-09-26T11:52:29.556Z,1036.48
2017-09-26T11:53:29.553Z,1036.46
2017-09-26T11:54:29.551Z,1036.5
2017-09-26T11:55:29.550Z,1036.43
2017-09-26T11:56:29.549Z,1036.43
2017-09-26T11:57:29.547Z,1036.37
2017-09-26T11:58:29.547Z,1036.35
2017-09-26T11:59:29.545Z,1036.3
2017-09-26T12:00:29.545Z,1036.29
2017-09-26T12:01:29.543Z,1036.28
2017-09-26T12:02:29.540Z,1036.24
2017-09-26T12:03:29.545Z,1036.19
2017-09-26T12:04:29.538Z,1036.17
2017-09-26T12:05:29.537Z,1036.12
2017-09-26T12:06:29.538Z,1036.08
2017-09-26T12:07:29.537Z,1036.03
2017-09-26T12:08:29.534Z,1035.88